Time;durP1;ratioP1;P1;durP2;ratioP2;P2;SDS_P1;SDS_P2;PMS_P1;PMS_P2;Temp;Humidity;BMP_temperature;BMP_pressure;BME280_temperature;BME280_humidity;BME280_pressure;Samples;Min_cycle;Max_cycle;Signal;HPM_P1;HPM_P2
2023/08/09 00:02:11;;;;;;;8.10;4.65;;;;;;;-142.75;100.00;76151.03;5088467;28;20059;-62
2023/08/09 00:04:36;;;;;;;8.35;5.10;;;;;;;-142.75;100.00;76154.97;5088573;28;20055;-62
2023/08/09 00:07:01;;;;;;;9.13;5.75;;;;;;;-142.75;100.00;76158.91;5088507;28;20055;-62
2023/08/09 00:09:27;;;;;;;9.55;5.25;;;;;;;-142.75;100.00;76149.06;5088685;28;20388;-63
2023/08/09 00:11:52;;;;;;;8.82;5.55;;;;;;;-142.75;100.00;76149.06;5088168;28;20562;-62
2023/08/09 00:14:17;;;;;;;7.68;4.80;;;;;;;-142.75;100.00;76151.03;5067999;28;20128;-62
2023/08/09 00:16:43;;;;;;;7.10;4.32;;;;;;;-142.75;100.00;76160.88;5068231;28;20028;-62
2023/08/09 00:19:09;;;;;;;9.48;5.20;;;;;;;-142.75;100.00;76168.75;5068016;28;20089;-62
2023/08/09 00:21:36;;;;;;;8.65;5.32;;;;;;;-142.75;100.00;76168.75;5067743;28;20055;-62
2023/08/09 00:24:02;;;;;;;9.82;6.10;;;;;;;-142.75;100.00;76178.59;5067782;28;20034;-62
2023/08/09 00:26:28;;;;;;;8.82;5.45;;;;;;;-142.75;100.00;76188.44;5068669;28;20043;-62
2023/08/09 00:28:53;;;;;;;8.30;5.30;;;;;;;-142.75;100.00;76202.19;5067928;28;20024;-62
2023/08/09 00:31:18;;;;;;;10.73;5.72;;;;;;;-142.75;100.00;76208.09;5067914;28;20033;-62
2023/08/09 00:33:45;;;;;;;6.80;4.38;;;;;;;-142.75;100.00;76212.03;5066326;28;20055;-63
2023/08/09 00:36:10;;;;;;;8.60;4.90;;;;;;;-142.75;100.00;76219.91;5067858;28;20051;-62
2023/08/09 00:38:36;;;;;;;9.70;5.22;;;;;;;-142.75;100.00;76219.91;5067675;28;20033;-62
2023/08/09 00:41:02;;;;;;;8.50;5.13;;;;;;;-142.75;100.00;76215.97;5067417;28;20035;-62
2023/08/09 00:43:27;;;;;;;8.93;4.93;;;;;;;-142.75;100.00;76223.84;5067336;28;20158;-62
2023/08/09 00:45:52;;;;;;;9.13;5.18;;;;;;;-142.75;100.00;76231.72;5067553;28;20500;-62
2023/08/09 00:48:18;;;;;;;8.88;5.38;;;;;;;-142.75;100.00;76227.78;5067572;28;20544;-62
2023/08/09 00:50:44;;;;;;;19.75;5.80;;;;;;;-142.75;100.00;76227.78;5067540;28;20079;-62
2023/08/09 00:53:09;;;;;;;9.55;5.80;;;;;;;-142.75;100.00;76229.75;5067268;28;20021;-62
2023/08/09 00:55:35;;;;;;;8.85;5.22;;;;;;;-142.75;100.00;76227.78;5067628;28;20724;-62
2023/08/09 00:58:00;;;;;;;13.23;6.32;;;;;;;-142.75;100.00;76223.84;5067487;28;20391;-63
2023/08/09 01:00:26;;;;;;;9.23;5.85;;;;;;;-142.75;100.00;76221.88;5087092;28;20119;-62
2023/08/09 01:02:51;;;;;;;13.40;6.22;;;;;;;-142.75;100.00;76221.88;5087280;28;20039;-62
2023/08/09 01:05:17;;;;;;;9.88;5.35;;;;;;;-142.75;100.00;76223.84;5087416;28;20028;-62
2023/08/09 01:07:58;;;;;;;9.25;5.40;;;;;;;-142.75;100.00;76227.78;5087338;28;20055;-62
2023/08/09 01:10:34;;;;;;;8.77;5.07;;;;;;;-142.75;100.00;76237.63;5087481;28;20032;-62
2023/08/09 01:13:03;;;;;;;9.07;5.28;;;;;;;-142.75;100.00;76247.47;5087157;28;20585;-62
2023/08/09 01:15:31;;;;;;;11.18;5.60;;;;;;;-142.75;100.00;76259.28;5087277;28;20016;-62
2023/08/09 01:17:58;;;;;;;9.15;5.63;;;;;;;-142.75;100.00;76259.28;5087373;28;20030;-62
2023/08/09 01:20:25;;;;;;;8.63;6.05;;;;;;;-142.75;100.00;76263.22;5086946;28;20102;-63
2023/08/09 01:23:22;;;;;;;10.52;5.97;;;;;;;-142.75;100.00;76255.34;5086791;28;20050;-62
2023/08/09 01:25:48;;;;;;;9.98;6.57;;;;;;;-142.75;100.00;76263.22;5086223;28;20648;-62
2023/08/09 01:28:16;;;;;;;9.25;5.55;;;;;;;-142.75;100.00;76259.28;5087067;28;20023;-62
2023/08/09 01:30:42;;;;;;;8.88;5.60;;;;;;;-142.75;100.00;76259.28;5087449;28;20415;-62
2023/08/09 01:33:08;;;;;;;13.15;6.43;;;;;;;-142.75;100.00;76259.28;5086461;28;20016;-62
2023/08/09 01:35:42;;;;;;;9.80;5.50;;;;;;;-142.75;100.00;76247.47;5087403;28;20031;-61
2023/08/09 01:38:42;;;;;;;10.48;5.60;;;;;;;-142.75;100.00;76235.66;5087174;28;20103;-62
2023/08/09 01:41:08;;;;;;;10.30;5.50;;;;;;;-142.75;100.00;76241.56;5086582;28;20020;-62
2023/08/09 01:43:34;;;;;;;9.45;5.60;;;;;;;-142.75;100.00;76243.53;5086682;28;20487;-62
2023/08/09 01:46:00;;;;;;;11.00;6.43;;;;;;;-142.75;100.00;76247.47;5087099;28;20028;-62
2023/08/09 01:48:26;;;;;;;13.00;5.78;;;;;;;-142.75;100.00;76251.41;5086930;28;20437;-62
2023/08/09 01:50:51;;;;;;;8.43;5.25;;;;;;;-142.75;100.00;76255.34;5086902;28;20074;-63
2023/08/09 01:53:17;;;;;;;10.55;5.80;;;;;;;-142.75;100.00;76259.28;5080064;28;20419;-62
2023/08/09 01:55:42;;;;;;;10.18;5.30;;;;;;;-142.75;100.00;76263.22;5067377;28;20035;-62
2023/08/09 01:58:08;;;;;;;8.63;5.03;;;;;;;-142.75;100.00;76267.16;5066586;28;20074;-62
2023/08/09 02:00:33;;;;;;;11.30;5.30;;;;;;;-142.75;100.00;76267.16;5065470;28;20024;-62
2023/08/09 02:02:58;;;;;;;8.27;4.82;;;;;;;-142.75;100.00;76271.09;5066487;28;20086;-62
2023/08/09 02:05:24;;;;;;;8.93;4.97;;;;;;;-142.75;100.00;76267.16;5066854;28;20036;-62
2023/08/09 02:07:50;;;;;;;9.82;5.30;;;;;;;-142.75;100.00;76269.13;5066591;28;20031;-62
2023/08/09 02:10:16;;;;;;;7.68;4.70;;;;;;;-142.75;100.00;76267.16;5066896;28;20484;-62
2023/08/09 02:12:47;;;;;;;9.15;4.47;;;;;;;-142.75;100.00;76271.09;5066325;28;20031;-63
2023/08/09 02:15:13;;;;;;;7.00;4.35;;;;;;;-142.75;100.00;76280.94;5066931;28;20025;-62
2023/08/09 02:17:38;;;;;;;8.18;4.97;;;;;;;-142.75;100.00;76292.75;5069387;28;20458;-62
2023/08/09 02:20:04;;;;;;;10.02;5.22;;;;;;;-142.75;100.00;76286.84;5070264;28;20016;-62
2023/08/09 02:22:37;;;;;;;8.35;5.03;;;;;;;-142.75;100.00;76286.84;5069903;28;20054;-62
2023/08/09 02:25:04;;;;;;;7.88;4.90;;;;;;;-142.75;100.00;76286.84;5070404;28;20103;-62
2023/08/09 02:27:29;;;;;;;7.75;4.20;;;;;;;-142.75;100.00;76286.84;5070691;28;20028;-62
2023/08/09 02:29:55;;;;;;;9.52;4.57;;;;;;;-142.75;100.00;76284.88;5070023;28;20021;-62
2023/08/09 02:32:20;;;;;;;8.98;5.30;;;;;;;-142.75;100.00;76286.84;5069914;28;20018;-63
2023/08/09 02:34:46;;;;;;;10.10;5.35;;;;;;;-142.75;100.00;76286.84;5070261;28;20044;-62
2023/08/09 02:37:11;;;;;;;10.20;5.32;;;;;;;-142.75;100.00;76290.78;5070068;28;20085;-62
2023/08/09 02:39:37;;;;;;;7.80;4.93;;;;;;;-142.75;100.00;76288.81;5069773;28;20052;-62
2023/08/09 02:42:02;;;;;;;9.35;5.25;;;;;;;-142.75;100.00;76290.78;5069779;28;20021;-63
2023/08/09 02:44:29;;;;;;;8.25;4.75;;;;;;;-142.75;100.00;76300.63;5068980;28;20451;-63
2023/08/09 02:46:55;;;;;;;9.05;5.00;;;;;;;-142.75;100.00;76298.66;5069829;28;20028;-62
2023/08/09 02:49:20;;;;;;;8.38;4.97;;;;;;;-142.75;100.00;76302.59;5069853;28;20021;-62
2023/08/09 02:51:45;;;;;;;8.32;4.60;;;;;;;-142.75;100.00;76302.59;5069809;28;20044;-62
2023/08/09 02:54:11;;;;;;;9.40;5.40;;;;;;;-142.75;100.00;76294.72;5069493;28;20036;-62
2023/08/09 02:56:36;;;;;;;8.23;5.53;;;;;;;-142.75;100.00;76290.78;5070082;28;20020;-62
2023/08/09 02:59:02;;;;;;;8.20;5.18;;;;;;;-142.75;100.00;76286.84;5068407;28;20032;-62
2023/08/09 03:01:29;;;;;;;10.88;5.38;;;;;;;-142.75;100.00;76286.84;5069551;28;20030;-62
2023/08/09 03:03:54;;;;;;;9.35;5.97;;;;;;;-142.75;100.00;76280.94;5069248;28;20047;-63
2023/08/09 03:06:23;;;;;;;10.38;6.22;;;;;;;-142.75;100.00;76277.00;5069627;28;20020;-62
2023/08/09 03:08:52;;;;;;;11.30;7.22;;;;;;;-142.75;100.00;76267.16;5069282;28;20070;-62
2023/08/09 03:11:21;;;;;;;12.30;7.20;;;;;;;-142.75;100.00;76267.16;5069429;28;20082;-62
2023/08/09 03:13:46;;;;;;;13.15;7.60;;;;;;;-142.75;100.00;76273.06;5069034;28;20561;-62
2023/08/09 03:16:12;;;;;;;14.20;7.28;;;;;;;-142.75;100.00;76273.06;5069508;28;20024;-62
2023/08/09 03:18:41;;;;;;;14.60;7.80;;;;;;;-142.75;100.00;76271.09;5069628;28;20017;-63
2023/08/09 03:21:07;;;;;;;14.60;7.75;;;;;;;-142.75;100.00;76269.13;5069321;28;20024;-62
2023/08/09 03:23:33;;;;;;;16.50;8.10;;;;;;;-142.75;100.00;76269.13;5068928;28;20020;-61
2023/08/09 03:25:59;;;;;;;12.35;7.40;;;;;;;-142.75;100.00;76271.09;5069631;28;20430;-62
2023/08/09 03:28:24;;;;;;;12.27;7.55;;;;;;;-142.75;100.00;76282.91;5069081;28;20032;-62
2023/08/09 03:30:50;;;;;;;13.20;7.68;;;;;;;-142.75;100.00;76282.91;5069062;28;20396;-62
2023/08/09 03:33:15;;;;;;;11.35;7.07;;;;;;;-142.75;100.00;76280.94;5068993;28;20032;-62
2023/08/09 03:35:41;;;;;;;14.65;8.60;;;;;;;-142.75;100.00;76282.91;5069006;28;20056;-63
2023/08/09 03:38:06;;;;;;;14.10;8.25;;;;;;;-142.75;100.00;76294.72;5068834;28;20016;-62
2023/08/09 03:40:31;;;;;;;12.82;7.63;;;;;;;-142.75;100.00;76288.81;5068862;28;20069;-62
2023/08/09 03:42:57;;;;;;;11.70;7.43;;;;;;;-142.75;100.00;76290.78;5068801;28;20025;-62
2023/08/09 03:45:23;;;;;;;14.15;8.43;;;;;;;-142.75;100.00;76292.75;5068702;28;20028;-62
2023/08/09 03:47:48;;;;;;;12.98;8.02;;;;;;;-142.75;100.00;76292.75;5068865;28;20031;-63
2023/08/09 03:50:14;;;;;;;12.98;8.18;;;;;;;-142.75;100.00;76298.66;5068757;28;20579;-62
2023/08/09 03:52:40;;;;;;;12.85;7.72;;;;;;;-142.75;100.00;76300.63;5068353;28;20106;-62
2023/08/09 03:55:06;;;;;;;14.18;8.50;;;;;;;-142.75;100.00;76298.66;5068926;28;20154;-63
2023/08/09 03:57:32;;;;;;;13.02;8.50;;;;;;;-142.75;100.00;76300.63;5068964;28;20415;-62
2023/08/09 03:59:57;;;;;;;13.15;8.27;;;;;;;-142.75;100.00;76304.56;5068635;28;20028;-62
2023/08/09 04:02:22;;;;;;;16.08;9.80;;;;;;;-142.75;100.00;76306.53;5068122;28;20637;-62
2023/08/09 04:04:48;;;;;;;19.48;10.23;;;;;;;-142.75;100.00;76298.66;5068586;28;20056;-62
2023/08/09 04:07:13;;;;;;;16.15;9.65;;;;;;;-142.75;100.00;76296.69;5068844;28;20402;-63
2023/08/09 04:09:39;;;;;;;17.00;10.30;;;;;;;-142.75;100.00;76296.69;5068208;28;20028;-62
2023/08/09 04:12:05;;;;;;;17.02;9.50;;;;;;;-142.75;100.00;76298.66;5068131;28;20013;-62
2023/08/09 04:14:30;;;;;;;16.65;10.15;;;;;;;-142.75;100.00;76302.59;5068167;28;20021;-62
2023/08/09 04:16:59;;;;;;;17.00;9.85;;;;;;;-142.75;100.00;76290.78;5066941;28;20024;-62
2023/08/09 04:19:26;;;;;;;20.35;11.13;;;;;;;-142.75;100.00;76296.69;5068180;28;20094;-62
2023/08/09 04:21:52;;;;;;;19.38;10.73;;;;;;;-142.75;100.00;76298.66;5067856;28;20029;-62
2023/08/09 04:24:18;;;;;;;18.65;10.73;;;;;;;-142.75;100.00;76302.59;5067709;28;20630;-63
2023/08/09 04:26:44;;;;;;;15.30;9.98;;;;;;;-142.75;100.00;76294.72;5068552;28;20070;-62
2023/08/09 04:29:09;;;;;;;14.95;9.82;;;;;;;-142.75;100.00;76302.59;5068154;28;20519;-62
2023/08/09 04:31:34;;;;;;;17.65;9.68;;;;;;;-142.75;100.00;76290.78;5067971;28;20074;-63
2023/08/09 04:34:00;;;;;;;17.52;10.38;;;;;;;-142.75;100.00;76288.81;5067896;28;20032;-62
2023/08/09 04:36:26;;;;;;;17.58;9.52;;;;;;;-142.75;100.00;76286.84;5067774;28;20090;-62
2023/08/09 04:38:51;;;;;;;18.38;9.90;;;;;;;-142.75;100.00;76288.81;5067540;28;20111;-62
2023/08/09 04:41:17;;;;;;;15.52;9.32;;;;;;;-142.75;100.00;76294.72;5067335;28;20066;-62
2023/08/09 04:43:43;;;;;;;22.95;11.70;;;;;;;-142.75;100.00;76280.94;5067546;28;20074;-62
2023/08/09 04:46:11;;;;;;;16.30;9.20;;;;;;;-142.75;100.00;76280.94;5067635;28;20028;-62
2023/08/09 04:48:39;;;;;;;16.17;9.35;;;;;;;-142.75;100.00;76277.00;5067393;28;20107;-63
2023/08/09 04:51:05;;;;;;;15.43;9.57;;;;;;;-142.75;100.00;76275.03;5067584;28;20024;-62
2023/08/09 04:53:31;;;;;;;15.80;9.80;;;;;;;-142.75;100.00;76282.91;5067105;28;20024;-63
2023/08/09 04:55:56;;;;;;;16.30;8.30;;;;;;;-142.75;100.00;76271.09;5068108;28;20032;-63
2023/08/09 04:58:21;;;;;;;18.23;8.93;;;;;;;-142.75;100.00;76273.06;5067449;28;20149;-62
2023/08/09 05:00:47;;;;;;;19.08;9.35;;;;;;;-142.75;100.00;76273.06;5067515;28;20035;-62
2023/08/09 05:03:12;;;;;;;16.55;9.43;;;;;;;-142.75;100.00;76263.22;5067333;28;20549;-63
2023/08/09 05:05:38;;;;;;;15.30;9.23;;;;;;;-142.75;100.00;76261.25;5067478;28;20021;-63
2023/08/09 05:08:04;;;;;;;15.85;9.02;;;;;;;-142.75;100.00;76243.53;5067357;28;20024;-64
2023/08/09 05:10:29;;;;;;;18.00;9.38;;;;;;;-142.75;100.00;76241.56;5067233;28;20488;-62
2023/08/09 05:12:55;;;;;;;15.32;9.32;;;;;;;-142.75;100.00;76231.72;5066762;28;20530;-62
2023/08/09 05:15:20;;;;;;;15.85;8.63;;;;;;;-142.75;100.00;76225.81;5067401;28;20292;-62
2023/08/09 05:17:45;;;;;;;16.13;9.48;;;;;;;-142.75;100.00;76219.91;5067189;28;20589;-62
2023/08/09 05:20:11;;;;;;;16.02;8.68;;;;;;;-142.75;100.00;76223.84;5067513;28;20105;-62
2023/08/09 05:22:37;;;;;;;19.58;9.57;;;;;;;-142.75;100.00;76219.91;5066830;28;20028;-62
2023/08/09 05:25:03;;;;;;;17.58;10.02;;;;;;;-142.75;100.00;76221.88;5067126;28;20483;-62
2023/08/09 05:27:28;;;;;;;16.13;9.38;;;;;;;-142.75;100.00;76219.91;5067734;28;20534;-63
2023/08/09 05:29:53;;;;;;;16.27;8.82;;;;;;;-142.75;100.00;76215.97;5066963;28;20055;-63
2023/08/09 05:32:20;;;;;;;16.27;9.00;;;;;;;-142.75;100.00;76204.16;5066841;28;20120;-62
2023/08/09 05:34:46;;;;;;;20.17;9.10;;;;;;;-142.75;100.00;76223.84;5066972;28;20059;-62
2023/08/09 05:37:11;;;;;;;13.13;8.07;;;;;;;-142.75;100.00;76233.69;5066990;28;20055;-63
2023/08/09 05:39:37;;;;;;;16.00;8.82;;;;;;;-142.75;100.00;76231.72;5067291;28;20486;-62
2023/08/09 05:42:03;;;;;;;13.70;8.20;;;;;;;-142.75;100.00;76249.44;5066647;28;20028;-64
2023/08/09 05:44:28;;;;;;;15.82;8.23;;;;;;;-142.75;100.00;76239.59;5067019;28;20039;-63
2023/08/09 05:46:54;;;;;;;13.93;7.85;;;;;;;-142.75;100.00;76243.53;5066786;28;20600;-62
2023/08/09 05:49:19;;;;;;;14.35;8.70;;;;;;;-142.75;100.00;76247.47;5067070;28;20035;-63
2023/08/09 05:51:44;;;;;;;16.95;8.48;;;;;;;-142.75;100.00;76255.34;5067873;28;20063;-62
2023/08/09 05:54:10;;;;;;;12.90;8.00;;;;;;;-142.75;100.00;76253.38;5070104;28;20032;-62
2023/08/09 05:56:35;;;;;;;16.60;9.00;;;;;;;-142.75;100.00;76265.19;5070707;28;20048;-63
2023/08/09 05:59:00;;;;;;;15.18;8.60;;;;;;;-142.75;100.00;76286.84;5070381;28;20044;-62
2023/08/09 06:01:26;;;;;;;15.30;8.45;;;;;;;-142.75;100.00;76271.09;5070175;28;20407;-62
2023/08/09 06:03:51;;;;;;;13.40;7.88;;;;;;;-142.75;100.00;76257.31;5069712;28;20040;-62
2023/08/09 06:06:16;;;;;;;15.15;8.65;;;;;;;-142.75;100.00;76251.41;5070097;28;20518;-62
2023/08/09 06:08:42;;;;;;;14.85;9.30;;;;;;;-142.75;100.00;76247.47;5069866;28;20493;-62
2023/08/09 06:11:07;;;;;;;13.15;8.18;;;;;;;-142.75;100.00;76231.72;5069964;28;20571;-62
2023/08/09 06:13:34;;;;;;;12.52;8.13;;;;;;;-142.75;100.00;76215.97;5069716;28;20476;-62
2023/08/09 06:15:59;;;;;;;16.27;9.13;;;;;;;-142.75;100.00;76204.16;5070336;28;20048;-62
2023/08/09 06:18:25;;;;;;;13.55;8.18;;;;;;;-142.75;100.00;76192.38;5070453;28;20024;-62
2023/08/09 06:20:50;;;;;;;14.25;7.88;;;;;;;-142.75;100.00;76186.47;5070439;28;20033;-62
2023/08/09 06:23:16;;;;;;;12.50;7.75;;;;;;;-142.75;100.00;76151.03;5070016;28;20052;-62
2023/08/09 06:25:41;;;;;;;14.80;8.05;;;;;;;-142.75;100.00;76149.06;5070332;28;20021;-63
2023/08/09 06:28:08;;;;;;;12.38;7.03;;;;;;;-142.75;100.00;76137.25;5070699;28;20031;-63
2023/08/09 06:30:33;;;;;;;14.32;8.00;;;;;;;-142.75;100.00;76127.41;5070155;28;20491;-62
2023/08/09 06:32:59;;;;;;;11.82;7.57;;;;;;;-142.75;100.00;76117.56;5069860;28;20073;-62
2023/08/09 06:35:25;;;;;;;11.23;6.72;;;;;;;-142.75;100.00;76105.75;5070253;28;20086;-63
2023/08/09 06:37:52;;;;;;;13.02;6.72;;;;;;;-142.75;100.00;76070.34;5070018;28;20036;-63
2023/08/09 06:40:18;;;;;;;11.00;6.03;;;;;;;-142.75;100.00;76030.97;5069964;28;20040;-63
2023/08/09 06:42:44;;;;;;;13.43;6.28;;;;;;;-142.75;100.00;76013.25;5069851;28;20051;-63
2023/08/09 06:45:10;;;;;;;8.80;5.70;;;;;;;-142.75;100.00;76011.28;5069916;28;20027;-62
2023/08/09 06:47:35;;;;;;;11.00;5.88;;;;;;;-142.75;100.00;76046.72;5069849;28;20024;-62
2023/08/09 06:50:04;;;;;;;8.80;5.28;;;;;;;-142.75;100.00;76034.91;5070225;28;20032;-63
2023/08/09 06:52:30;;;;;;;8.10;4.72;;;;;;;-142.75;100.00;76023.09;5069509;28;20035;-62
2023/08/09 06:54:55;;;;;;;10.20;4.63;;;;;;;-142.75;100.00;76042.78;5069823;28;20025;-62
2023/08/09 06:57:21;;;;;;;7.50;4.35;;;;;;;-142.75;100.00;76027.03;5070203;28;20399;-62
2023/08/09 06:59:47;;;;;;;5.90;3.42;;;;;;;-142.75;100.00;76015.22;5069761;28;20031;-63
2023/08/09 07:02:12;;;;;;;8.15;4.40;;;;;;;-142.75;100.00;75999.47;5068777;28;20048;-62
2023/08/09 07:04:38;;;;;;;7.15;4.07;;;;;;;-142.75;100.00;76007.34;5086041;28;20506;-61
2023/08/09 07:07:05;;;;;;;8.60;3.70;;;;;;;-142.75;100.00;75987.66;5089772;28;20039;-61
2023/08/09 07:09:30;;;;;;;4.45;3.08;;;;;;;-142.75;100.00;75964.03;5075447;28;20032;-62
2023/08/09 07:11:56;;;;;;;4.50;2.67;;;;;;;-142.75;100.00;75948.31;5089815;28;20023;-63
2023/08/09 07:14:21;;;;;;;8.35;3.58;;;;;;;-142.75;100.00;75930.59;5089755;28;20173;-62
2023/08/09 07:16:46;;;;;;;5.28;3.03;;;;;;;-142.75;100.00;75922.72;5089474;28;20023;-62
2023/08/09 07:19:12;;;;;;;4.60;2.80;;;;;;;-142.75;100.00;75920.75;5089593;28;20024;-62
2023/08/09 07:21:37;;;;;;;6.88;3.10;;;;;;;-142.75;100.00;75932.56;5089601;28;20050;-62
2023/08/09 07:24:03;;;;;;;6.35;2.70;;;;;;;-142.75;100.00;75908.94;5089233;28;20106;-62
2023/08/09 07:26:28;;;;;;;5.78;2.38;;;;;;;-142.75;100.00;75964.03;5089873;28;20016;-62
2023/08/09 07:28:54;;;;;;;6.38;2.35;;;;;;;-142.75;100.00;75952.25;5088219;28;20074;-62
2023/08/09 07:31:20;;;;;;;4.88;2.67;;;;;;;-142.75;100.00;75950.28;5089486;28;20024;-62
2023/08/09 07:33:46;;;;;;;6.20;2.72;;;;;;;-142.75;100.00;75916.81;5088723;28;20020;-62
2023/08/09 07:36:12;;;;;;;3.85;2.08;;;;;;;-142.75;100.00;75916.81;5089252;28;20105;-62
2023/08/09 07:38:37;;;;;;;3.78;2.13;;;;;;;-142.75;100.00;75971.91;5089058;28;20062;-62
2023/08/09 07:41:04;;;;;;;4.95;2.28;;;;;;;-142.75;100.00;75966.00;5071734;28;20110;-61
2023/08/09 07:43:29;;;;;;;4.07;2.00;;;;;;;-142.75;100.00;75960.13;5068543;28;20668;-62
2023/08/09 07:45:54;;;;;;;5.85;1.70;;;;;;;-142.75;100.00;75942.41;5068750;28;20029;-62
2023/08/09 07:48:20;;;;;;;4.35;2.13;;;;;;;-142.75;100.00;75916.81;5069019;28;20745;-62
2023/08/09 07:50:46;;;;;;;4.90;2.05;;;;;;;-142.75;100.00;75940.44;5078768;28;20020;-61
2023/08/09 07:53:12;;;;;;;4.60;1.90;;;;;;;-142.75;100.00;75975.84;5088546;28;20016;-62
2023/08/09 07:55:38;;;;;;;2.58;1.38;;;;;;;-142.75;100.00;76017.19;5086210;28;20023;-62
2023/08/09 07:58:04;;;;;;;4.15;1.73;;;;;;;-142.75;100.00;76003.41;5069006;28;20020;-63
2023/08/09 08:00:30;;;;;;;8.20;1.98;;;;;;;-142.75;100.00;75952.25;5068741;28;20016;-62
2023/08/09 08:02:55;;;;;;;4.57;1.52;;;;;;;-142.75;100.00;75934.53;5068141;28;20043;-62
2023/08/09 08:05:21;;;;;;;3.15;1.90;;;;;;;-142.75;100.00;75901.06;5068389;28;20162;-62
2023/08/09 08:07:46;;;;;;;5.47;1.67;;;;;;;-142.75;100.00;75873.50;5068522;28;20458;-62
2023/08/09 08:10:15;;;;;;;4.65;1.73;;;;;;;-142.75;100.00;75865.63;5068463;28;20029;-62
2023/08/09 08:12:45;;;;;;;3.22;1.70;;;;;;;-142.75;100.00;75885.31;5067953;28;20021;-62
2023/08/09 08:15:14;;;;;;;3.08;1.30;;;;;;;-142.75;100.00;75914.84;5074362;28;20058;-61
2023/08/09 08:17:40;;;;;;;3.40;1.27;;;;;;;-142.75;100.00;75877.44;5088403;28;20103;-62
2023/08/09 08:20:10;;;;;;;3.30;1.50;;;;;;;-142.75;100.00;75891.22;5088216;28;20032;-61
2023/08/09 08:22:36;;;;;;;4.57;1.45;;;;;;;-142.75;100.00;75885.31;5087810;28;20027;-61
2023/08/09 08:25:02;;;;;;;3.72;1.58;;;;;;;-142.75;100.00;75893.19;5075694;28;20137;-63
2023/08/09 08:27:27;;;;;;;2.50;1.50;;;;;;;-142.75;100.00;75877.44;5088378;28;20494;-61
2023/08/09 08:29:55;;;;;;;4.43;1.65;;;;;;;-142.75;100.00;75826.28;5088314;28;20491;-61
2023/08/09 08:32:20;;;;;;;4.03;1.55;;;;;;;-142.75;100.00;75790.84;5087856;28;20105;-61
2023/08/09 08:34:46;;;;;;;4.28;1.77;;;;;;;-142.75;100.00;75777.06;5088144;28;20495;-62
2023/08/09 08:37:12;;;;;;;5.70;1.50;;;;;;;-142.75;100.00;75834.16;5070498;28;20025;-61
2023/08/09 08:39:38;;;;;;;3.17;1.10;;;;;;;-142.75;100.00;75885.31;5068302;28;20534;-61
2023/08/09 08:42:03;;;;;;;4.30;1.40;;;;;;;-142.75;100.00;75889.25;5067095;28;20029;-62
2023/08/09 08:44:29;;;;;;;6.25;1.90;;;;;;;-142.75;100.00;75891.22;5067753;28;20024;-62
2023/08/09 08:46:55;;;;;;;4.10;1.52;;;;;;;-142.75;100.00;75956.19;5067651;28;20024;-61
2023/08/09 08:49:24;;;;;;;6.32;2.05;;;;;;;-142.75;100.00;75932.56;5067640;28;20189;-61
2023/08/09 08:51:56;;;;;;;5.13;1.90;;;;;;;-142.75;100.00;75940.44;5067451;28;20464;-61
2023/08/09 08:54:23;;;;;;;4.07;1.52;;;;;;;-142.75;100.00;75908.94;5072392;28;20526;-61
2023/08/09 08:56:48;;;;;;;5.93;1.75;;;;;;;-142.75;100.00;75865.63;5087526;28;20019;-62
2023/08/09 08:59:15;;;;;;;6.07;2.10;;;;;;;-142.75;100.00;75855.81;5087555;28;20026;-61
2023/08/09 09:01:42;;;;;;;4.20;1.83;;;;;;;-142.75;100.00;75877.44;5087452;28;20048;-62
2023/08/09 09:04:08;;;;;;;3.50;2.25;;;;;;;-142.75;100.00;75879.41;5087334;28;20114;-61
2023/08/09 09:06:33;;;;;;;7.80;2.13;;;;;;;-142.75;100.00;75875.47;5078722;28;20115;-62
2023/08/09 09:08:59;;;;;;;4.32;1.83;;;;;;;-142.75;100.00;75912.88;5068021;28;20044;-61
2023/08/09 09:11:25;;;;;;;7.85;1.85;;;;;;;-142.75;100.00;75977.81;5067208;28;20074;-62
2023/08/09 09:13:51;;;;;;;5.72;2.28;;;;;;;-142.75;100.00;75948.31;5066948;28;20021;-61
2023/08/09 09:16:20;;;;;;;5.20;1.83;;;;;;;-142.75;100.00;75973.88;5067275;28;20024;-61
2023/08/09 09:18:48;;;;;;;4.30;1.70;;;;;;;-142.75;100.00;76001.44;5067016;28;20024;-61
2023/08/09 09:21:16;;;;;;;8.85;1.58;;;;;;;-142.75;100.00;75954.22;5067187;28;20025;-61
2023/08/09 09:23:42;;;;;;;2.92;1.45;;;;;;;-142.75;100.00;75940.44;5075165;28;20069;-62
2023/08/09 09:26:10;;;;;;;2.70;1.40;;;;;;;-142.75;100.00;75908.94;5087460;28;20020;-61
2023/08/09 09:28:44;;;;;;;4.43;1.30;;;;;;;-142.75;100.00;75877.44;5087625;28;20513;-61
2023/08/09 09:31:10;;;;;;;3.00;1.70;;;;;;;-142.75;100.00;75836.13;5087212;28;20406;-62
2023/08/09 09:33:37;;;;;;;3.85;1.50;;;;;;;-142.75;100.00;75810.53;5086525;28;20043;-61
2023/08/09 09:36:03;;;;;;;3.30;1.58;;;;;;;-142.75;100.00;75798.72;5086395;28;20151;-62
2023/08/09 09:38:29;;;;;;;9.38;1.65;;;;;;;-142.75;100.00;75747.56;5086841;28;20042;-62
2023/08/09 09:40:56;;;;;;;3.95;1.30;;;;;;;-142.75;100.00;75735.75;5086271;28;20454;-61
2023/08/09 09:43:22;;;;;;;2.15;1.10;;;;;;;-142.75;100.00;75775.09;5085857;28;20036;-62
2023/08/09 09:45:53;;;;;;;4.20;1.20;;;;;;;-142.75;100.00;75794.78;5086016;28;20138;-62
2023/08/09 09:48:18;;;;;;;4.47;1.38;;;;;;;-142.75;100.00;75812.50;5085705;28;20640;-62
2023/08/09 09:50:44;;;;;;;2.65;1.20;;;;;;;-142.75;100.00;75857.78;5085650;28;20107;-61
2023/08/09 09:53:13;;;;;;;4.85;1.35;;;;;;;-142.75;100.00;75873.50;5085276;28;20027;-62
2023/08/09 09:55:43;;;;;;;6.50;1.25;;;;;;;-142.75;100.00;75865.63;5085587;28;20418;-60
2023/08/09 09:58:08;;;;;;;2.63;1.00;;;;;;;-142.75;100.00;75855.81;5086601;28;20469;-62
2023/08/09 10:00:36;;;;;;;6.35;1.50;;;;;;;-142.75;100.00;75820.38;5085453;28;20016;-62
2023/08/09 10:03:04;;;;;;;6.55;1.52;;;;;;;-142.75;100.00;75790.84;5085141;28;20047;-62
2023/08/09 10:05:37;;;;;;;4.55;1.35;;;;;;;-142.75;100.00;75765.25;5085464;28;20020;-62
2023/08/09 10:08:07;;;;;;;3.53;1.20;;;;;;;-142.75;100.00;75731.81;5085947;28;20036;-61
2023/08/09 10:10:35;;;;;;;3.67;1.10;;;;;;;-142.75;100.00;75700.31;5085520;28;20020;-62
2023/08/09 10:13:04;;;;;;;6.35;1.38;;;;;;;-142.75;100.00;75747.56;5085419;28;20024;-62
2023/08/09 10:15:38;;;;;;;2.83;1.23;;;;;;;-142.75;100.00;75755.44;5085644;28;20028;-62
2023/08/09 10:18:14;;;;;;;3.60;1.20;;;;;;;-142.75;100.00;75816.44;5085375;28;20020;-61
2023/08/09 10:20:47;;;;;;;3.42;0.88;;;;;;;-142.75;100.00;75838.09;5085669;28;20603;-63
2023/08/09 10:23:24;;;;;;;5.90;1.55;;;;;;;-142.75;100.00;75857.78;5085213;28;20032;-62
2023/08/09 10:25:50;;;;;;;4.25;1.13;;;;;;;-142.75;100.00;75861.69;5085394;28;20028;-62
2023/08/09 10:28:17;;;;;;;9.52;1.38;;;;;;;-142.75;100.00;75859.72;5086435;28;20491;-62
2023/08/09 10:30:48;;;;;;;3.83;1.23;;;;;;;-142.75;100.00;75826.28;5085247;28;20031;-61
2023/08/09 10:33:20;;;;;;;3.33;1.02;;;;;;;-142.75;100.00;75786.91;5085086;28;20048;-62
2023/08/09 10:35:52;;;;;;;3.90;1.17;;;;;;;-142.75;100.00;75749.53;5085242;28;20116;-62
2023/08/09 10:38:41;;;;;;;5.03;1.27;;;;;;;-142.75;100.00;75727.88;5087151;28;20035;-62
2023/08/09 10:41:09;;;;;;;6.30;1.20;;;;;;;-142.75;100.00;75775.09;5088769;28;20037;-62
2023/08/09 10:43:34;;;;;;;5.00;1.20;;;;;;;-142.75;100.00;75790.84;5088755;28;20058;-61
2023/08/09 10:46:20;;;;;;;2.97;0.82;;;;;;;-142.75;100.00;75771.16;5088835;28;20045;-62
2023/08/09 10:48:53;;;;;;;3.70;1.02;;;;;;;-142.75;100.00;75743.63;5088809;28;20054;-61
2023/08/09 10:51:23;;;;;;;7.88;0.80;;;;;;;-142.75;100.00;75749.53;5088456;28;20035;-62
2023/08/09 10:54:00;;;;;;;5.50;1.08;;;;;;;-142.75;100.00;75743.63;5088359;28;20514;-62
2023/08/09 10:56:43;;;;;;;5.07;1.23;;;;;;;-142.75;100.00;75751.50;5088769;28;20031;-61
2023/08/09 10:59:19;;;;;;;5.05;0.95;;;;;;;-142.75;100.00;75714.09;5089692;28;20376;-62
2023/08/09 11:01:45;;;;;;;1.98;0.80;;;;;;;-142.75;100.00;75700.31;5088293;28;20088;-62
2023/08/09 11:04:13;;;;;;;3.03;0.88;;;;;;;-142.75;96.06;75753.47;5088242;28;20411;-61
2023/08/09 11:06:47;;;;;;;2.92;0.90;;;;;;;-142.75;99.39;75788.88;5088356;28;20039;-62